createdAt,value
2018-01-30T00:01:27.682Z,89.80
2018-01-30T00:03:55.814Z,90.00
2018-01-30T00:06:23.935Z,90.20
2018-01-30T00:08:52.061Z,90.10
2018-01-30T00:11:20.184Z,90.30
2018-01-30T00:13:48.336Z,90.30
2018-01-30T00:16:16.455Z,90.60
2018-01-30T00:18:45.334Z,90.60
2018-01-30T00:21:13.460Z,90.60
2018-01-30T00:23:41.562Z,90.50
2018-01-30T00:26:09.704Z,90.50
2018-01-30T00:28:37.860Z,90.50
2018-01-30T00:31:05.968Z,90.60
2018-01-30T00:33:34.083Z,90.50
2018-01-30T00:36:02.963Z,90.80
2018-01-30T00:38:31.092Z,90.80
2018-01-30T00:40:59.195Z,90.80
2018-01-30T00:43:27.328Z,91.00
2018-01-30T00:45:55.461Z,91.20
2018-01-30T00:48:23.572Z,91.20
2018-01-30T00:50:51.675Z,91.30
2018-01-30T00:53:19.802Z,91.30
2018-01-30T00:55:48.700Z,91.90
2018-01-30T00:58:16.812Z,91.80
2018-01-30T01:00:44.943Z,92.10
2018-01-30T01:03:13.813Z,92.00
2018-01-30T01:05:41.988Z,92.20
2018-01-30T01:08:10.910Z,93.20
2018-01-30T01:10:39.791Z,92.80
2018-01-30T01:13:07.908Z,92.80
2018-01-30T01:15:36.048Z,92.70
2018-01-30T01:18:04.168Z,92.50
2018-01-30T01:20:32.279Z,92.50
2018-01-30T01:23:01.170Z,92.70
2018-01-30T01:25:30.043Z,93.40
2018-01-30T01:27:59.535Z,93.40
2018-01-30T01:30:27.651Z,93.50
2018-01-30T01:32:56.322Z,93.70
2018-01-30T01:35:25.218Z,93.30
2018-01-30T01:37:54.104Z,93.60
2018-01-30T01:40:23.051Z,93.80
2018-01-30T01:42:51.290Z,94.20
2018-01-30T01:45:19.415Z,94.00
2018-01-30T01:47:47.534Z,93.90
2018-01-30T01:50:15.663Z,94.20
2018-01-30T01:52:43.780Z,94.60
2018-01-30T01:55:11.915Z,94.30
2018-01-30T01:57:40.027Z,94.60
2018-01-30T02:00:08.148Z,94.40
2018-01-30T02:02:36.303Z,94.50
2018-01-30T02:05:04.459Z,95.00
2018-01-30T02:07:32.614Z,94.70
2018-01-30T02:10:01.493Z,94.70
2018-01-30T02:12:30.399Z,94.80
2018-01-30T02:14:58.531Z,94.70
2018-01-30T02:17:26.650Z,94.40
2018-01-30T02:19:54.771Z,94.90
2018-01-30T02:22:22.920Z,94.80
2018-01-30T02:24:51.034Z,95.30
2018-01-30T02:27:19.924Z,95.50
2018-01-30T02:29:48.057Z,95.70
2018-01-30T02:32:16.198Z,95.60
2018-01-30T02:34:44.335Z,95.80
2018-01-30T02:37:12.471Z,96.30
2018-01-30T02:39:40.605Z,95.70
2018-01-30T02:42:09.497Z,96.10
2018-01-30T02:44:38.409Z,95.90
2018-01-30T02:47:06.531Z,95.90
2018-01-30T02:49:34.668Z,95.90
2018-01-30T02:52:02.792Z,95.90
2018-01-30T02:54:30.895Z,96.00
2018-01-30T02:56:59.053Z,96.00
2018-01-30T02:59:27.933Z,96.00
2018-01-30T03:01:56.847Z,96.20
2018-01-30T03:04:24.988Z,96.10
2018-01-30T03:06:53.718Z,96.50
2018-01-30T03:09:21.839Z,96.50
2018-01-30T03:11:49.984Z,96.20
2018-01-30T03:14:18.672Z,96.10
2018-01-30T03:16:46.802Z,96.40
2018-01-30T03:19:15.693Z,96.50
2018-01-30T03:21:44.577Z,96.80
2018-01-30T03:24:13.488Z,97.00
2018-01-30T03:26:41.613Z,96.80
2018-01-30T03:29:09.754Z,96.60
2018-01-30T03:31:37.878Z,96.30
2018-01-30T03:34:06.018Z,96.20
2018-01-30T03:36:34.138Z,95.90
2018-01-30T03:39:03.096Z,96.00
2018-01-30T03:41:31.212Z,95.80
2018-01-30T03:44:00.142Z,95.80
2018-01-30T03:46:28.274Z,95.80
2018-01-30T03:48:57.182Z,95.40
2018-01-30T03:51:25.361Z,95.40
2018-01-30T03:53:53.856Z,95.70
2018-01-30T03:56:21.993Z,96.00
2018-01-30T03:58:50.907Z,96.00
2018-01-30T04:01:19.767Z,95.90
2018-01-30T04:03:48.662Z,96.20
2018-01-30T04:06:17.552Z,96.00
2018-01-30T04:08:46.453Z,95.80
2018-01-30T04:11:15.335Z,95.30
2018-01-30T04:13:44.227Z,95.40
2018-01-30T04:16:13.130Z,95.50
2018-01-30T04:18:41.254Z,95.50
2018-01-30T04:21:09.409Z,95.90
2018-01-30T04:23:37.537Z,95.90
2018-01-30T04:26:06.425Z,96.30
2018-01-30T04:28:35.323Z,96.20
2018-01-30T04:31:04.203Z,96.50
2018-01-30T04:33:33.116Z,96.60
2018-01-30T04:36:01.787Z,96.60
2018-01-30T04:38:30.683Z,96.50
2018-01-30T04:40:59.598Z,96.40
2018-01-30T04:43:27.741Z,96.30
2018-01-30T04:45:56.648Z,96.20
2018-01-30T04:48:25.529Z,96.20
2018-01-30T04:50:54.435Z,96.30
2018-01-30T04:53:22.579Z,96.40
2018-01-30T04:55:50.727Z,96.10
2018-01-30T04:58:18.879Z,96.30
2018-01-30T05:00:47.009Z,96.10
2018-01-30T05:03:15.214Z,95.90
2018-01-30T05:05:44.134Z,96.00
2018-01-30T05:08:12.251Z,95.90
2018-01-30T05:10:41.175Z,96.00
2018-01-30T05:13:09.323Z,96.00
2018-01-30T05:15:38.999Z,96.20
2018-01-30T05:18:07.135Z,96.40
2018-01-30T05:20:35.261Z,96.40
2018-01-30T05:23:03.435Z,96.40
2018-01-30T05:25:31.559Z,96.00
2018-01-30T05:27:59.999Z,95.90
2018-01-30T05:30:28.963Z,95.60
2018-01-30T05:32:57.098Z,95.50
2018-01-30T05:35:26.048Z,96.30
2018-01-30T05:37:54.165Z,96.20
2018-01-30T05:40:22.307Z,96.20
2018-01-30T05:42:51.206Z,95.10
2018-01-30T05:45:19.331Z,95.10
2018-01-30T05:47:47.573Z,95.60
2018-01-30T05:50:15.671Z,95.20
2018-01-30T05:52:43.788Z,95.10
2018-01-30T05:55:12.687Z,95.90
2018-01-30T05:57:41.571Z,96.00
2018-01-30T06:00:10.471Z,96.30
2018-01-30T06:02:39.352Z,96.30
2018-01-30T06:05:08.260Z,96.00
2018-01-30T06:07:37.959Z,96.20
2018-01-30T06:10:06.840Z,96.30
2018-01-30T06:12:35.796Z,95.90
2018-01-30T06:15:03.911Z,96.00
2018-01-30T06:17:32.790Z,95.60
2018-01-30T06:20:01.721Z,95.40
2018-01-30T06:22:29.865Z,95.90
2018-01-30T06:24:58.771Z,95.90
2018-01-30T06:27:27.660Z,96.00
2018-01-30T06:29:57.111Z,95.80
2018-01-30T06:32:25.235Z,95.70
2018-01-30T06:34:54.116Z,95.90
2018-01-30T06:37:23.033Z,95.90
2018-01-30T06:39:51.179Z,95.80
2018-01-30T06:42:20.075Z,95.50
2018-01-30T06:44:48.978Z,95.70
2018-01-30T06:47:17.104Z,95.60
2018-01-30T06:49:45.247Z,95.50
2018-01-30T06:52:13.418Z,95.50
2018-01-30T06:54:42.068Z,95.50
2018-01-30T06:57:10.988Z,95.50
2018-01-30T06:59:39.108Z,95.60
2018-01-30T07:02:07.341Z,96.00
2018-01-30T07:04:35.431Z,96.00
2018-01-30T07:07:03.555Z,95.70
2018-01-30T07:09:32.444Z,95.70
2018-01-30T07:12:01.369Z,95.90
2018-01-30T07:14:29.491Z,95.80
2018-01-30T07:16:57.718Z,96.00
2018-01-30T07:19:25.816Z,96.20
2018-01-30T07:21:53.964Z,96.20
2018-01-30T07:24:22.076Z,95.70
2018-01-30T07:26:51.097Z,95.60
2018-01-30T07:29:19.223Z,95.20
2018-01-30T07:31:47.331Z,94.80
2018-01-30T07:34:15.513Z,94.60
2018-01-30T07:36:43.627Z,95.00
2018-01-30T07:39:11.799Z,95.40
2018-01-30T07:41:39.920Z,95.20
2018-01-30T07:44:08.041Z,95.20
2018-01-30T07:46:36.187Z,94.70
2018-01-30T07:49:05.099Z,95.00
2018-01-30T07:51:33.481Z,94.90
2018-01-30T07:54:01.616Z,94.80
2018-01-30T07:56:29.836Z,94.70
2018-01-30T07:58:57.939Z,94.10
2018-01-30T08:01:26.388Z,94.30
2018-01-30T08:03:55.292Z,93.60
2018-01-30T08:06:23.435Z,93.50
2018-01-30T08:08:52.344Z,93.10
2018-01-30T08:11:20.527Z,93.00
2018-01-30T08:13:48.655Z,93.00
2018-01-30T08:16:17.031Z,93.30
2018-01-30T08:18:45.159Z,91.40
2018-01-30T08:21:13.807Z,92.10
2018-01-30T08:23:42.686Z,86.90
2018-01-30T08:26:11.607Z,79.60
2018-01-30T08:28:39.789Z,78.80
2018-01-30T08:31:07.899Z,78.60
2018-01-30T08:33:36.076Z,78.10
2018-01-30T08:36:05.895Z,74.40
2018-01-30T08:38:34.864Z,71.70
2018-01-30T08:41:02.999Z,72.00
2018-01-30T08:43:31.133Z,73.00
2018-01-30T08:45:59.268Z,67.90
2018-01-30T08:48:27.401Z,67.70
2018-01-30T08:50:56.302Z,69.40
2018-01-30T08:53:24.715Z,69.70
2018-01-30T08:55:52.919Z,67.30
2018-01-30T08:58:22.155Z,67.40
2018-01-30T09:00:51.608Z,67.00
2018-01-30T09:03:19.756Z,67.20
2018-01-30T09:05:47.944Z,67.50
2018-01-30T09:08:16.107Z,71.00
2018-01-30T09:10:44.250Z,70.50
2018-01-30T09:13:13.144Z,66.40
2018-01-30T09:15:42.819Z,63.80
2018-01-30T09:18:10.963Z,63.70
2018-01-30T09:20:39.087Z,60.60
2018-01-30T09:23:07.220Z,63.50
2018-01-30T09:25:35.473Z,61.80
2018-01-30T09:28:03.596Z,64.20
2018-01-30T09:30:31.739Z,61.90
2018-01-30T09:32:59.880Z,64.00
2018-01-30T09:35:28.081Z,60.00
2018-01-30T09:37:56.976Z,58.20
2018-01-30T09:40:25.132Z,58.50
2018-01-30T09:42:53.265Z,58.50
2018-01-30T09:45:21.392Z,57.90
2018-01-30T09:47:49.530Z,56.10
2018-01-30T09:50:17.990Z,53.50
2018-01-30T09:52:46.115Z,57.60
2018-01-30T09:55:14.264Z,55.50
2018-01-30T09:57:42.392Z,52.30
2018-01-30T10:00:10.509Z,49.10
2018-01-30T10:02:39.440Z,48.20
2018-01-30T10:05:07.563Z,47.70
2018-01-30T10:07:36.460Z,51.40
2018-01-30T10:10:05.383Z,53.70
2018-01-30T10:12:33.515Z,53.80
2018-01-30T10:15:02.411Z,46.90
2018-01-30T10:17:31.312Z,46.80
2018-01-30T10:19:59.461Z,46.60
2018-01-30T10:22:27.579Z,43.50
2018-01-30T10:24:55.719Z,45.20
2018-01-30T10:27:24.625Z,42.80
2018-01-30T10:29:53.503Z,42.80
2018-01-30T10:32:22.479Z,41.20
2018-01-30T10:34:50.600Z,40.80
2018-01-30T10:37:19.475Z,41.40
2018-01-30T10:39:47.638Z,41.40
2018-01-30T10:42:16.523Z,39.00
2018-01-30T10:44:45.399Z,40.90
2018-01-30T10:47:13.576Z,40.10
2018-01-30T10:49:41.697Z,41.20
2018-01-30T10:52:09.807Z,42.20
2018-01-30T10:54:37.968Z,43.50
2018-01-30T10:57:06.121Z,47.10
2018-01-30T10:59:34.233Z,45.70
2018-01-30T11:02:02.375Z,47.20
2018-01-30T11:04:31.328Z,49.20
2018-01-30T11:07:00.270Z,49.10
2018-01-30T11:09:28.409Z,49.20
2018-01-30T11:11:56.543Z,50.60
2018-01-30T11:14:24.668Z,51.60
2018-01-30T11:16:52.828Z,49.20
2018-01-30T11:19:20.939Z,48.40
2018-01-30T11:21:49.185Z,47.10
2018-01-30T11:24:17.323Z,48.60
2018-01-30T11:26:46.220Z,55.40
2018-01-30T11:29:16.227Z,58.30
2018-01-30T11:31:45.159Z,60.30
2018-01-30T11:34:13.332Z,60.40
2018-01-30T11:36:41.483Z,63.60
2018-01-30T11:39:10.396Z,62.30
2018-01-30T11:41:38.516Z,62.40
2018-01-30T11:44:06.638Z,62.40
2018-01-30T11:46:34.763Z,60.40
2018-01-30T11:49:02.906Z,64.00
2018-01-30T11:51:31.037Z,60.90
2018-01-30T11:54:00.304Z,52.70
2018-01-30T11:56:29.302Z,52.60
2018-01-30T11:58:58.379Z,51.20
2018-01-30T12:01:26.523Z,50.00
2018-01-30T12:03:54.638Z,47.80
2018-01-30T12:06:22.770Z,45.80
2018-01-30T12:08:51.227Z,47.70
2018-01-30T12:11:20.140Z,50.50
2018-01-30T12:13:48.319Z,50.10
2018-01-30T12:16:16.556Z,49.40
2018-01-30T12:18:44.678Z,50.80
2018-01-30T12:21:12.806Z,51.50
2018-01-30T12:23:40.935Z,52.00
2018-01-30T12:26:09.060Z,49.40
2018-01-30T12:28:37.978Z,49.20
2018-01-30T12:31:06.122Z,49.30
2018-01-30T12:33:35.033Z,50.10
2018-01-30T12:36:03.308Z,50.30
2018-01-30T12:38:31.491Z,50.30
2018-01-30T12:40:59.655Z,50.50
2018-01-30T12:43:30.366Z,48.50
2018-01-30T12:45:58.588Z,48.30
2018-01-30T12:48:26.695Z,47.60
2018-01-30T12:50:54.847Z,47.50
2018-01-30T12:53:22.989Z,48.20
2018-01-30T12:55:51.144Z,52.00
2018-01-30T12:58:20.031Z,54.20
2018-01-30T13:00:48.951Z,54.10
2018-01-30T13:03:17.651Z,54.10
2018-01-30T13:05:45.802Z,55.50
2018-01-30T13:08:14.757Z,54.00
2018-01-30T13:10:43.519Z,54.00
2018-01-30T13:13:11.642Z,50.10
2018-01-30T13:15:40.560Z,53.20
2018-01-30T13:18:09.179Z,53.10
2018-01-30T13:20:37.299Z,48.90
2018-01-30T13:23:05.464Z,46.80
2018-01-30T13:25:34.351Z,47.90
2018-01-30T13:28:03.239Z,48.00
2018-01-30T13:30:32.160Z,45.80
2018-01-30T13:33:00.319Z,46.40
2018-01-30T13:35:28.447Z,49.10
2018-01-30T13:37:57.374Z,50.90
2018-01-30T13:40:26.267Z,53.70
2018-01-30T13:42:55.152Z,52.60
2018-01-30T13:45:24.087Z,53.80
2018-01-30T13:47:52.243Z,53.50
2018-01-30T13:50:20.362Z,54.30
2018-01-30T13:52:48.556Z,57.20
2018-01-30T13:55:17.451Z,50.10
2018-01-30T13:57:46.345Z,48.90
2018-01-30T14:00:15.259Z,46.50
2018-01-30T14:02:43.383Z,46.10
2018-01-30T14:05:11.525Z,46.70
2018-01-30T14:07:39.680Z,47.00
2018-01-30T14:10:07.795Z,47.40
2018-01-30T14:12:35.939Z,49.30
2018-01-30T14:15:04.079Z,50.00
2018-01-30T14:17:33.582Z,51.80
2018-01-30T14:20:02.518Z,51.50
2018-01-30T14:22:31.941Z,50.90
2018-01-30T14:25:00.827Z,51.70
2018-01-30T14:27:28.943Z,51.40
2018-01-30T14:29:57.865Z,51.20
2018-01-30T14:32:25.990Z,51.20
2018-01-30T14:34:54.131Z,52.40
2018-01-30T14:37:22.281Z,49.90
2018-01-30T14:39:51.992Z,48.00
2018-01-30T14:42:20.141Z,46.60
2018-01-30T14:44:48.290Z,45.00
2018-01-30T14:47:16.407Z,47.50
2018-01-30T14:49:44.544Z,48.50
2018-01-30T14:52:13.155Z,49.60
2018-01-30T14:54:42.044Z,51.80
2018-01-30T14:57:10.173Z,51.90
2018-01-30T14:59:38.311Z,53.00
2018-01-30T15:02:06.494Z,53.70
2018-01-30T15:04:34.608Z,54.50
2018-01-30T15:07:02.751Z,54.60
2018-01-30T15:09:30.980Z,55.10
2018-01-30T15:11:59.923Z,56.40
2018-01-30T15:14:28.999Z,56.50
2018-01-30T15:16:57.136Z,58.30
2018-01-30T15:19:26.026Z,57.80
2018-01-30T15:21:54.940Z,57.10
2018-01-30T15:24:23.061Z,56.80
2018-01-30T15:26:51.983Z,55.40
2018-01-30T15:29:20.911Z,55.20
2018-01-30T15:31:49.035Z,55.50
2018-01-30T15:34:17.517Z,56.30
2018-01-30T15:36:45.668Z,55.90
2018-01-30T15:39:13.841Z,56.20
2018-01-30T15:41:42.905Z,58.10
2018-01-30T15:44:11.100Z,59.40
2018-01-30T15:46:39.240Z,60.10
2018-01-30T15:49:08.592Z,61.00
2018-01-30T15:51:36.783Z,61.60
2018-01-30T15:54:04.902Z,62.30
2018-01-30T15:56:33.772Z,62.30
2018-01-30T15:59:02.678Z,63.30
2018-01-30T16:01:30.890Z,62.40
2018-01-30T16:03:59.028Z,63.00
2018-01-30T16:06:27.225Z,65.30
2018-01-30T16:08:58.235Z,65.10
2018-01-30T16:11:27.131Z,65.90
2018-01-30T16:13:56.025Z,66.60
2018-01-30T16:16:25.858Z,66.60
2018-01-30T16:19:02.303Z,66.70
2018-01-30T16:21:31.172Z,66.50
2018-01-30T16:24:00.080Z,67.10
2018-01-30T16:26:29.011Z,67.50
2018-01-30T16:28:57.154Z,67.40
2018-01-30T16:31:25.333Z,68.00
2018-01-30T16:33:54.019Z,68.80
2018-01-30T16:36:22.147Z,69.00
2018-01-30T16:38:50.335Z,70.00
2018-01-30T16:41:19.655Z,69.40
2018-01-30T16:43:48.536Z,69.60
2018-01-30T16:46:17.478Z,69.40
2018-01-30T16:48:46.263Z,69.40
2018-01-30T16:51:14.403Z,68.40
2018-01-30T16:53:43.997Z,68.00
2018-01-30T16:56:13.619Z,68.20
2018-01-30T16:58:41.735Z,67.80
2018-01-30T17:01:09.863Z,67.50
2018-01-30T17:03:38.007Z,67.10
2018-01-30T17:06:06.151Z,68.50
2018-01-30T17:08:34.309Z,68.50
2018-01-30T17:11:02.451Z,68.80
2018-01-30T17:13:31.339Z,69.80
2018-01-30T17:16:00.250Z,69.50
2018-01-30T17:18:29.160Z,69.10
2018-01-30T17:20:57.268Z,69.00
2018-01-30T17:23:25.394Z,68.90
2018-01-30T17:25:53.535Z,69.20
2018-01-30T17:28:22.487Z,69.70
2018-01-30T17:30:50.587Z,69.50
2018-01-30T17:33:18.735Z,70.20
2018-01-30T17:35:48.095Z,70.50
2018-01-30T17:38:16.789Z,70.80
2018-01-30T17:40:44.970Z,70.80
2018-01-30T17:43:13.093Z,70.50
2018-01-30T17:45:42.018Z,70.60
2018-01-30T17:48:10.172Z,70.80
2018-01-30T17:50:39.132Z,71.80
2018-01-30T17:53:07.374Z,71.70
2018-01-30T17:55:37.144Z,72.50
2018-01-30T17:58:05.279Z,72.40
2018-01-30T18:00:33.457Z,72.10
2018-01-30T18:03:01.717Z,72.20
2018-01-30T18:05:30.643Z,72.00
2018-01-30T18:07:58.766Z,71.80
2018-01-30T18:10:27.696Z,72.50
2018-01-30T18:12:55.860Z,72.20
2018-01-30T18:15:23.975Z,72.10
2018-01-30T18:17:52.203Z,72.10
2018-01-30T18:20:20.312Z,70.90
2018-01-30T18:22:49.588Z,71.80
2018-01-30T18:25:18.459Z,72.10
2018-01-30T18:27:46.575Z,71.80
2018-01-30T18:30:15.195Z,72.50
2018-01-30T18:32:44.107Z,71.70
2018-01-30T18:35:12.979Z,71.80
2018-01-30T18:37:41.864Z,72.20
2018-01-30T18:40:10.780Z,72.30
2018-01-30T18:42:39.599Z,72.30
2018-01-30T18:45:07.719Z,72.30
2018-01-30T18:47:36.619Z,73.20
2018-01-30T18:50:06.359Z,72.60
2018-01-30T18:52:35.784Z,72.90
2018-01-30T18:55:04.821Z,72.80
2018-01-30T18:57:33.699Z,72.90
2018-01-30T19:00:01.861Z,72.80
2018-01-30T19:02:33.951Z,72.70
2018-01-30T19:05:02.994Z,73.10
2018-01-30T19:07:31.112Z,73.00
2018-01-30T19:09:59.224Z,73.00
2018-01-30T19:12:27.366Z,73.30
2018-01-30T19:14:56.259Z,74.40
2018-01-30T19:17:25.138Z,74.50
2018-01-30T19:19:54.653Z,75.20
2018-01-30T19:22:23.541Z,75.10
2018-01-30T19:24:51.690Z,75.30
2018-01-30T19:27:19.867Z,74.60
2018-01-30T19:29:47.995Z,74.70
2018-01-30T19:32:16.114Z,74.60
2018-01-30T19:34:44.727Z,75.20
2018-01-30T19:37:13.613Z,76.30
2018-01-30T19:39:43.343Z,76.80
2018-01-30T19:42:12.176Z,76.80
2018-01-30T19:44:40.288Z,75.60
2018-01-30T19:47:09.179Z,76.40
2018-01-30T19:49:38.084Z,76.80
2018-01-30T19:52:07.447Z,77.10
2018-01-30T19:54:35.674Z,76.60
2018-01-30T19:57:04.325Z,76.10
2018-01-30T19:59:32.435Z,77.50
2018-01-30T20:02:00.551Z,78.20
2018-01-30T20:04:28.724Z,77.90
2018-01-30T20:06:57.843Z,78.60
2018-01-30T20:09:26.735Z,79.10
2018-01-30T20:11:55.642Z,79.10
2018-01-30T20:14:24.515Z,79.60
2018-01-30T20:16:54.002Z,79.90
2018-01-30T20:19:22.159Z,79.70
2018-01-30T20:21:50.277Z,80.50
2018-01-30T20:24:19.173Z,80.80
2018-01-30T20:26:48.071Z,80.70
2018-01-30T20:29:16.212Z,79.80
2018-01-30T20:31:44.328Z,80.90
2018-01-30T20:34:13.288Z,81.50
2018-01-30T20:36:45.148Z,81.40
2018-01-30T20:39:14.068Z,82.30
2018-01-30T20:41:42.964Z,81.20
2018-01-30T20:44:11.839Z,81.00
2018-01-30T20:46:39.983Z,81.00
2018-01-30T20:49:08.094Z,80.60
2018-01-30T20:51:36.215Z,80.40
2018-01-30T20:54:04.381Z,80.60
2018-01-30T20:56:32.523Z,80.30
2018-01-30T20:59:00.638Z,80.60
2018-01-30T21:01:28.771Z,80.90
2018-01-30T21:03:57.346Z,80.10
2018-01-30T21:06:25.451Z,80.00
2018-01-30T21:08:53.588Z,79.90
2018-01-30T21:11:21.696Z,80.10
2018-01-30T21:13:49.853Z,80.00
2018-01-30T21:16:17.983Z,81.50
2018-01-30T21:18:46.095Z,80.50
2018-01-30T21:21:14.211Z,80.70
2018-01-30T21:23:42.381Z,80.40
2018-01-30T21:26:10.496Z,80.00
2018-01-30T21:28:39.828Z,80.60
2018-01-30T21:31:07.960Z,80.30
2018-01-30T21:33:36.840Z,80.10
2018-01-30T21:36:04.951Z,80.40
2018-01-30T21:38:33.093Z,80.50
2018-01-30T21:41:01.960Z,80.50
2018-01-30T21:43:31.264Z,80.20
2018-01-30T21:45:59.423Z,80.20
2018-01-30T21:48:32.055Z,80.10
2018-01-30T21:51:00.193Z,79.60
2018-01-30T21:53:28.287Z,79.20
2018-01-30T21:55:57.170Z,78.80
2018-01-30T21:58:26.085Z,79.50
2018-01-30T22:00:54.183Z,78.80
2018-01-30T22:03:22.308Z,79.10
2018-01-30T22:05:50.444Z,79.60
2018-01-30T22:08:18.545Z,79.60
2018-01-30T22:10:46.659Z,79.80
2018-01-30T22:13:14.779Z,79.70
2018-01-30T22:15:42.885Z,79.60
2018-01-30T22:18:12.565Z,79.40
2018-01-30T22:20:40.695Z,78.80
2018-01-30T22:23:08.804Z,79.00
2018-01-30T22:25:40.669Z,78.90
2018-01-30T22:28:09.578Z,78.90
2018-01-30T22:30:38.404Z,78.90
2018-01-30T22:33:06.527Z,78.40
2018-01-30T22:35:34.660Z,78.50
2018-01-30T22:38:02.821Z,78.40
2018-01-30T22:40:30.982Z,78.30
2018-01-30T22:42:59.930Z,78.30
2018-01-30T22:45:28.056Z,78.10
